createdAt,value
2023-05-14T00:00:16.372Z,13.27
2023-05-14T00:00:48.070Z,12.63
2023-05-14T00:01:19.651Z,11.93
2023-05-14T00:01:52.035Z,13.18
2023-05-14T00:02:23.816Z,12.30
2023-05-14T00:02:55.847Z,12.90
2023-05-14T00:03:27.600Z,13.27
2023-05-14T00:03:59.357Z,12.15
2023-05-14T00:04:31.190Z,12.50
2023-05-14T00:05:02.858Z,13.93
2023-05-14T00:05:34.427Z,13.68
2023-05-14T00:06:06.224Z,12.82
2023-05-14T00:06:37.817Z,14.40
2023-05-14T00:07:09.340Z,13.07
2023-05-14T00:07:41.284Z,13.00
2023-05-14T00:08:12.967Z,13.68
2023-05-14T00:08:44.509Z,13.13
2023-05-14T00:09:16.264Z,12.80
2023-05-14T00:09:47.847Z,12.38
2023-05-14T00:10:21.898Z,13.43
2023-05-14T00:10:53.807Z,13.80
2023-05-14T00:11:25.656Z,13.35
2023-05-14T00:11:57.234Z,12.77
2023-05-14T00:12:30.095Z,12.95
2023-05-14T00:13:01.664Z,13.75
2023-05-14T00:13:33.282Z,12.77
2023-05-14T00:14:05.163Z,13.88
2023-05-14T00:14:36.695Z,14.48
2023-05-14T00:15:08.901Z,12.25
2023-05-14T00:15:40.468Z,12.48
2023-05-14T00:16:12.383Z,13.32
2023-05-14T00:16:43.979Z,11.85
2023-05-14T00:17:15.736Z,13.10
2023-05-14T00:17:47.287Z,12.98
2023-05-14T00:18:18.815Z,13.38
2023-05-14T00:18:50.636Z,12.55
2023-05-14T00:19:22.230Z,12.80
2023-05-14T00:19:53.762Z,12.32
2023-05-14T00:20:25.472Z,13.20
2023-05-14T00:20:57.205Z,12.50
2023-05-14T00:21:28.780Z,12.95
2023-05-14T00:22:00.494Z,12.50
2023-05-14T00:22:32.026Z,12.75
2023-05-14T00:23:03.718Z,12.27
2023-05-14T00:23:35.241Z,13.20
2023-05-14T00:24:06.930Z,12.35
2023-05-14T00:24:38.518Z,12.18
2023-05-14T00:25:10.248Z,12.57
2023-05-14T00:25:41.888Z,12.40
2023-05-14T00:26:13.509Z,12.35
2023-05-14T00:26:46.847Z,13.30
2023-05-14T00:27:18.394Z,12.52
2023-05-14T00:27:50.020Z,13.07
2023-05-14T00:28:21.861Z,12.82
2023-05-14T00:28:53.477Z,12.82
2023-05-14T00:29:25.042Z,13.20
2023-05-14T00:29:56.598Z,12.27
2023-05-14T00:30:28.269Z,13.18
2023-05-14T00:30:59.855Z,13.68
2023-05-14T00:31:31.593Z,12.52
2023-05-14T00:32:03.475Z,13.52
2023-05-14T00:32:35.196Z,13.25
2023-05-14T00:33:07.191Z,13.43
2023-05-14T00:33:38.823Z,12.85
2023-05-14T00:34:10.522Z,14.38
2023-05-14T00:34:42.059Z,13.13
2023-05-14T00:35:13.625Z,14.02
2023-05-14T00:35:45.799Z,13.45
2023-05-14T00:36:17.391Z,13.48
2023-05-14T00:36:48.981Z,13.18
2023-05-14T00:37:20.598Z,12.77
2023-05-14T00:37:52.155Z,13.98
2023-05-14T00:38:24.287Z,13.80
2023-05-14T00:38:56.018Z,13.70
2023-05-14T00:39:27.544Z,13.93
2023-05-14T00:39:59.139Z,12.18
2023-05-14T00:40:30.997Z,13.27
2023-05-14T00:41:02.790Z,12.23
2023-05-14T00:41:34.441Z,13.75
2023-05-14T00:42:06.469Z,14.05
2023-05-14T00:42:38.422Z,13.65
2023-05-14T00:43:09.970Z,12.80
2023-05-14T00:43:41.657Z,12.88
2023-05-14T00:44:13.346Z,13.40
2023-05-14T00:44:44.899Z,13.40
2023-05-14T00:45:16.455Z,13.95
2023-05-14T00:45:50.567Z,12.73
2023-05-14T00:46:22.553Z,13.05
2023-05-14T00:46:55.501Z,11.90
2023-05-14T00:47:27.200Z,14.20
2023-05-14T00:47:58.800Z,12.20
2023-05-14T00:48:30.737Z,13.18
2023-05-14T00:49:02.484Z,14.00
2023-05-14T00:49:34.420Z,13.30
2023-05-14T00:50:06.629Z,13.77
2023-05-14T00:50:38.582Z,14.40
2023-05-14T00:51:10.921Z,14.57
2023-05-14T00:51:43.065Z,14.98
2023-05-14T00:52:15.624Z,12.95
2023-05-14T00:52:47.585Z,14.15
2023-05-14T00:53:19.813Z,14.35
2023-05-14T00:53:51.907Z,13.40
2023-05-14T00:54:23.471Z,15.35
2023-05-14T00:54:55.157Z,13.32
2023-05-14T00:55:27.759Z,15.63
2023-05-14T00:55:59.804Z,13.18
2023-05-14T00:56:31.657Z,12.38
2023-05-14T00:57:04.019Z,13.13
2023-05-14T00:57:36.293Z,14.43
2023-05-14T00:58:11.062Z,13.60
2023-05-14T00:58:42.609Z,12.73
2023-05-14T00:59:14.208Z,12.93
2023-05-14T00:59:45.813Z,13.57
2023-05-14T01:00:17.770Z,13.85
2023-05-14T01:00:49.490Z,13.52
2023-05-14T01:01:21.350Z,13.07
2023-05-14T01:01:53.028Z,14.60
2023-05-14T01:02:24.690Z,13.82
2023-05-14T01:02:56.431Z,12.95
2023-05-14T01:03:28.258Z,12.95
2023-05-14T01:04:00.598Z,13.43
2023-05-14T01:04:32.470Z,13.32
2023-05-14T01:05:04.543Z,12.80
2023-05-14T01:05:42.382Z,13.60
2023-05-14T01:06:24.589Z,14.05
2023-05-14T01:07:33.230Z,12.93
2023-05-14T01:08:17.207Z,12.15
2023-05-14T01:09:10.741Z,12.52
2023-05-14T01:09:42.363Z,12.82
2023-05-14T01:10:19.937Z,12.05
2023-05-14T01:10:53.447Z,13.27
2023-05-14T01:11:30.045Z,12.20
2023-05-14T01:12:19.959Z,11.80
2023-05-14T01:13:12.729Z,12.63
2023-05-14T01:14:02.641Z,12.23
2023-05-14T01:14:36.202Z,12.52
2023-05-14T01:15:13.777Z,12.68
2023-05-14T01:15:47.644Z,12.98
2023-05-14T01:16:20.202Z,12.95
2023-05-14T01:16:58.638Z,13.05
2023-05-14T01:17:33.017Z,14.10
2023-05-14T01:18:08.072Z,12.35
2023-05-14T01:18:41.526Z,12.50
2023-05-14T01:19:22.711Z,12.40
2023-05-14T01:19:55.308Z,12.18
2023-05-14T01:20:27.144Z,13.15
2023-05-14T01:20:58.928Z,12.63
2023-05-14T01:21:36.930Z,12.68
2023-05-14T01:22:08.685Z,12.50
2023-05-14T01:22:40.188Z,12.90
2023-05-14T01:23:11.762Z,12.82
2023-05-14T01:23:43.297Z,11.85
2023-05-14T01:24:14.938Z,12.35
2023-05-14T01:24:46.644Z,11.45
2023-05-14T01:25:18.543Z,12.98
2023-05-14T01:25:50.318Z,12.63
2023-05-14T01:26:21.915Z,10.95
2023-05-14T01:26:55.922Z,11.93
2023-05-14T01:27:36.431Z,12.93
2023-05-14T01:28:13.998Z,12.48
2023-05-14T01:28:45.839Z,11.18
2023-05-14T01:29:22.589Z,11.77
2023-05-14T01:30:15.159Z,9.98
2023-05-14T01:30:50.104Z,11.10
2023-05-14T01:31:27.861Z,12.30
2023-05-14T01:32:00.792Z,12.38
2023-05-14T01:32:33.242Z,12.48
2023-05-14T01:33:11.476Z,12.23
2023-05-14T01:33:43.867Z,12.73
2023-05-14T01:34:16.133Z,11.82
2023-05-14T01:34:48.890Z,11.20
2023-05-14T01:35:22.825Z,12.88
2023-05-14T01:35:54.872Z,10.80
2023-05-14T01:36:27.965Z,11.73
2023-05-14T01:37:00.188Z,12.45
2023-05-14T01:37:32.688Z,12.18
2023-05-14T01:38:07.594Z,11.65
2023-05-14T01:38:39.733Z,10.90
2023-05-14T01:39:12.193Z,11.10
2023-05-14T01:39:44.238Z,12.05
2023-05-14T01:40:15.840Z,11.57
2023-05-14T01:40:48.290Z,12.20
2023-05-14T01:41:21.917Z,12.43
2023-05-14T01:41:54.446Z,11.27
2023-05-14T01:42:26.379Z,12.20
2023-05-14T01:42:57.933Z,12.07
2023-05-14T01:43:30.023Z,12.40
2023-05-14T01:44:01.864Z,12.15
2023-05-14T01:44:33.663Z,11.43
2023-05-14T01:45:05.985Z,12.55
2023-05-14T01:45:37.825Z,12.00
2023-05-14T01:46:09.792Z,11.40
2023-05-14T01:46:41.533Z,11.52
2023-05-14T01:47:13.428Z,11.43
2023-05-14T01:47:45.021Z,10.60
2023-05-14T01:48:16.626Z,10.98
2023-05-14T01:48:48.222Z,10.98
2023-05-14T01:49:19.877Z,11.75
2023-05-14T01:49:51.453Z,13.10
2023-05-14T01:50:23.355Z,11.98
2023-05-14T01:50:55.191Z,11.50
2023-05-14T01:51:27.323Z,12.30
2023-05-14T01:51:58.863Z,12.43
2023-05-14T01:52:30.546Z,12.07
2023-05-14T01:53:02.188Z,12.40
2023-05-14T01:53:34.932Z,11.82
2023-05-14T01:54:06.513Z,11.85
2023-05-14T01:54:38.274Z,11.48
2023-05-14T01:55:10.727Z,10.70
2023-05-14T01:55:42.406Z,10.35
2023-05-14T01:56:14.501Z,11.30
2023-05-14T01:56:46.224Z,12.00
2023-05-14T01:57:17.788Z,11.68
2023-05-14T01:57:49.434Z,11.63
2023-05-14T01:58:21.007Z,11.68
2023-05-14T01:58:52.917Z,12.13
2023-05-14T01:59:24.571Z,11.05
2023-05-14T01:59:56.237Z,12.30
2023-05-14T02:00:27.975Z,13.68
2023-05-14T02:00:59.583Z,12.18
2023-05-14T02:01:31.755Z,12.18
2023-05-14T02:02:03.855Z,11.50
2023-05-14T02:02:35.583Z,11.65
2023-05-14T02:03:07.194Z,11.98
2023-05-14T02:03:39.015Z,12.38
2023-05-14T02:04:10.983Z,11.80
2023-05-14T02:04:42.547Z,10.73
2023-05-14T02:05:14.152Z,11.95
2023-05-14T02:05:45.732Z,12.80
2023-05-14T02:06:17.352Z,12.93
2023-05-14T02:06:48.883Z,12.60
2023-05-14T02:07:21.167Z,11.93
2023-05-14T02:07:52.778Z,12.40
2023-05-14T02:08:24.408Z,12.45
2023-05-14T02:08:56.148Z,11.32
2023-05-14T02:09:27.746Z,12.63
2023-05-14T02:09:59.478Z,11.98
2023-05-14T02:10:32.809Z,13.07
2023-05-14T02:11:04.527Z,12.05
2023-05-14T02:11:36.081Z,12.73
2023-05-14T02:12:11.663Z,11.68
2023-05-14T02:12:43.259Z,13.05
2023-05-14T02:13:14.842Z,11.60
2023-05-14T02:13:46.376Z,12.05
2023-05-14T02:14:17.918Z,12.93
2023-05-14T02:14:49.442Z,12.25
2023-05-14T02:15:21.196Z,12.18
2023-05-14T02:15:52.826Z,12.02
2023-05-14T02:16:24.342Z,12.05
2023-05-14T02:16:56.759Z,12.95
2023-05-14T02:17:28.295Z,13.27
2023-05-14T02:17:59.895Z,11.65
2023-05-14T02:18:31.614Z,12.27
2023-05-14T02:19:03.227Z,12.07
2023-05-14T02:19:34.896Z,12.23
2023-05-14T02:20:07.756Z,13.82
2023-05-14T02:20:39.369Z,12.18
2023-05-14T02:21:11.027Z,12.98
2023-05-14T02:21:43.097Z,12.35
2023-05-14T02:22:14.619Z,13.30
2023-05-14T02:22:46.361Z,12.57
2023-05-14T02:23:18.173Z,12.85
2023-05-14T02:23:51.225Z,11.90
2023-05-14T02:24:22.826Z,12.07
2023-05-14T02:24:54.360Z,12.25
2023-05-14T02:25:25.923Z,12.13
2023-05-14T02:25:57.449Z,12.07
2023-05-14T02:26:28.976Z,11.50
2023-05-14T02:27:01.249Z,11.68
2023-05-14T02:27:32.950Z,10.75
2023-05-14T02:28:04.814Z,11.48
2023-05-14T02:28:36.378Z,12.20
2023-05-14T02:29:08.251Z,12.68
2023-05-14T02:29:39.954Z,12.65
2023-05-14T02:30:11.836Z,12.13
2023-05-14T02:30:44.109Z,11.68
2023-05-14T02:31:17.590Z,13.18
2023-05-14T02:31:49.404Z,12.18
2023-05-14T02:32:21.315Z,12.77
2023-05-14T02:32:53.188Z,12.32
2023-05-14T02:33:25.797Z,12.20
2023-05-14T02:33:57.502Z,12.80
2023-05-14T02:34:29.024Z,12.27
2023-05-14T02:35:00.772Z,12.55
2023-05-14T02:35:32.316Z,12.23
2023-05-14T02:36:04.374Z,13.65
2023-05-14T02:36:35.970Z,11.98
2023-05-14T02:37:07.843Z,12.05
2023-05-14T02:37:39.433Z,12.80
2023-05-14T02:38:11.061Z,11.95
2023-05-14T02:38:42.630Z,11.95
2023-05-14T02:39:14.178Z,11.73
2023-05-14T02:39:45.870Z,12.75
2023-05-14T02:40:17.576Z,12.23
2023-05-14T02:40:49.145Z,11.52
2023-05-14T02:41:21.550Z,11.40
2023-05-14T02:41:53.122Z,11.52
2023-05-14T02:42:24.761Z,11.07
2023-05-14T02:42:56.398Z,11.73
2023-05-14T02:43:28.050Z,11.35
2023-05-14T02:43:59.720Z,12.52
2023-05-14T02:44:32.373Z,11.95
2023-05-14T02:45:04.434Z,11.32
2023-05-14T02:45:37.137Z,11.85
2023-05-14T02:46:08.945Z,12.18
2023-05-14T02:46:40.580Z,11.40
2023-05-14T02:47:12.370Z,11.25
2023-05-14T02:47:44.215Z,11.02
2023-05-14T02:48:15.855Z,11.60
2023-05-14T02:48:47.383Z,10.98
2023-05-14T02:49:18.928Z,11.13
2023-05-14T02:49:50.589Z,11.60
2023-05-14T02:50:22.330Z,11.95
2023-05-14T02:50:54.142Z,11.10
2023-05-14T02:51:26.791Z,11.27
2023-05-14T02:51:58.364Z,11.32
2023-05-14T02:52:30.152Z,10.77
2023-05-14T02:53:01.857Z,9.55
2023-05-14T02:53:33.424Z,10.15
2023-05-14T02:54:05.420Z,10.85
2023-05-14T02:54:36.973Z,12.85
2023-05-14T02:55:09.034Z,10.75
2023-05-14T02:55:41.347Z,9.48
2023-05-14T02:56:12.877Z,10.10
2023-05-14T02:56:44.463Z,9.63
2023-05-14T02:57:16.019Z,10.15
2023-05-14T02:57:47.565Z,10.52
2023-05-14T02:58:19.298Z,9.93
2023-05-14T02:58:59.639Z,10.75
2023-05-14T02:59:31.962Z,11.48
2023-05-14T03:00:04.764Z,11.80
2023-05-14T03:00:36.990Z,11.30
2023-05-14T03:01:09.229Z,11.02
2023-05-14T03:01:41.347Z,11.45
2023-05-14T03:02:13.569Z,12.68
2023-05-14T03:02:45.950Z,11.35
2023-05-14T03:03:19.531Z,11.73
2023-05-14T03:03:51.507Z,10.57
2023-05-14T03:04:23.527Z,10.65
2023-05-14T03:04:55.585Z,11.82
2023-05-14T03:05:27.152Z,14.48
2023-05-14T03:05:58.894Z,12.52
2023-05-14T03:06:31.202Z,12.73
2023-05-14T03:07:03.153Z,12.80
2023-05-14T03:07:34.851Z,12.15
2023-05-14T03:08:06.823Z,12.63
2023-05-14T03:08:38.344Z,13.85
2023-05-14T03:09:10.121Z,13.43
2023-05-14T03:09:41.741Z,12.43
2023-05-14T03:10:13.298Z,12.52
2023-05-14T03:10:44.945Z,12.98
2023-05-14T03:11:16.609Z,12.60
2023-05-14T03:11:48.190Z,12.98
2023-05-14T03:12:19.837Z,12.55
2023-05-14T03:12:51.863Z,13.70
2023-05-14T03:13:23.438Z,14.20
2023-05-14T03:13:54.981Z,13.60
2023-05-14T03:14:26.480Z,13.77
2023-05-14T03:14:58.045Z,12.80
2023-05-14T03:15:29.814Z,13.77
2023-05-14T03:16:01.384Z,13.48
2023-05-14T03:16:33.000Z,12.43
2023-05-14T03:17:04.813Z,12.48
2023-05-14T03:17:36.616Z,12.77
2023-05-14T03:18:08.294Z,12.77
2023-05-14T03:18:39.889Z,13.23
2023-05-14T03:19:14.000Z,13.27
2023-05-14T03:19:45.791Z,12.70
2023-05-14T03:20:17.372Z,13.52
2023-05-14T03:20:48.977Z,13.50
2023-05-14T03:21:20.613Z,13.65
2023-05-14T03:21:53.822Z,12.90
2023-05-14T03:22:25.561Z,13.40
2023-05-14T03:22:57.195Z,13.95
2023-05-14T03:23:31.993Z,12.75
2023-05-14T03:24:03.693Z,15.10
2023-05-14T03:24:35.505Z,13.18
2023-05-14T03:25:08.209Z,13.32
2023-05-14T03:25:40.728Z,13.35
2023-05-14T03:26:12.248Z,12.70
2023-05-14T03:26:43.786Z,14.13
2023-05-14T03:27:15.586Z,12.50
2023-05-14T03:27:47.235Z,13.30
2023-05-14T03:28:18.759Z,12.93
2023-05-14T03:28:50.879Z,12.82
2023-05-14T03:29:22.441Z,13.68
2023-05-14T03:29:53.997Z,12.68
2023-05-14T03:30:25.940Z,13.35
2023-05-14T03:30:57.994Z,14.18
2023-05-14T03:31:29.622Z,13.15
2023-05-14T03:32:01.406Z,13.30
2023-05-14T03:32:33.003Z,12.48
2023-05-14T03:33:04.730Z,13.23
2023-05-14T03:33:36.398Z,11.95
2023-05-14T03:34:08.018Z,11.48
2023-05-14T03:34:39.900Z,10.95
2023-05-14T03:35:11.915Z,11.77
2023-05-14T03:35:43.479Z,11.73
2023-05-14T03:36:15.031Z,12.32
2023-05-14T03:36:46.600Z,12.98
2023-05-14T03:37:18.260Z,11.32
2023-05-14T03:37:49.853Z,11.88
2023-05-14T03:38:21.720Z,12.00
2023-05-14T03:38:53.273Z,12.00
2023-05-14T03:39:24.852Z,12.10
2023-05-14T03:39:56.414Z,12.38
2023-05-14T03:40:28.029Z,13.02
2023-05-14T03:40:59.627Z,12.60
2023-05-14T03:41:31.348Z,13.13
2023-05-14T03:42:02.933Z,13.30
2023-05-14T03:42:34.589Z,12.82
2023-05-14T03:43:06.156Z,12.55
2023-05-14T03:43:37.950Z,13.20
2023-05-14T03:44:09.646Z,13.20
2023-05-14T03:44:41.177Z,12.93
2023-05-14T03:45:12.928Z,12.60
2023-05-14T03:45:44.608Z,12.52
2023-05-14T03:46:16.130Z,11.82
2023-05-14T03:46:47.871Z,13.25
2023-05-14T03:47:19.582Z,12.25
2023-05-14T03:47:51.308Z,11.90
2023-05-14T03:48:23.462Z,12.50
2023-05-14T03:48:55.433Z,12.00
2023-05-14T03:49:27.054Z,12.88
2023-05-14T03:49:59.424Z,11.80
2023-05-14T03:50:31.005Z,13.30
2023-05-14T03:51:02.752Z,12.73
2023-05-14T03:51:34.483Z,13.55
2023-05-14T03:52:09.413Z,12.93
2023-05-14T03:52:40.973Z,12.93
2023-05-14T03:53:13.162Z,11.25
2023-05-14T03:53:44.703Z,12.00
2023-05-14T03:54:17.829Z,14.13
2023-05-14T03:54:49.467Z,13.05
2023-05-14T03:55:21.428Z,12.00
2023-05-14T03:55:52.988Z,12.50
2023-05-14T03:56:27.575Z,13.82
2023-05-14T03:56:59.079Z,11.02
2023-05-14T03:57:30.714Z,12.00
2023-05-14T03:58:02.687Z,11.95
2023-05-14T03:58:34.243Z,12.32
2023-05-14T03:59:05.849Z,12.20
2023-05-14T03:59:37.409Z,12.20
2023-05-14T04:00:09.765Z,12.65
2023-05-14T04:00:48.251Z,13.32
2023-05-14T04:01:20.058Z,13.48
2023-05-14T04:01:51.615Z,12.95
2023-05-14T04:02:24.543Z,12.73
2023-05-14T04:02:56.230Z,12.60
2023-05-14T04:03:29.098Z,11.90
2023-05-14T04:04:01.962Z,13.70
2023-05-14T04:04:34.001Z,11.88
2023-05-14T04:05:07.493Z,12.45
2023-05-14T04:05:39.220Z,12.73
2023-05-14T04:06:11.350Z,10.18
2023-05-14T04:06:42.967Z,11.15
2023-05-14T04:07:14.507Z,11.18
2023-05-14T04:07:46.342Z,12.45
2023-05-14T04:08:17.996Z,12.95
2023-05-14T04:08:49.516Z,11.55
2023-05-14T04:09:21.096Z,10.82
2023-05-14T04:09:52.653Z,13.60
2023-05-14T04:10:24.492Z,11.45
2023-05-14T04:10:56.233Z,11.15
2023-05-14T04:11:28.128Z,11.27
2023-05-14T04:11:59.664Z,11.32
2023-05-14T04:12:31.537Z,11.57
2023-05-14T04:13:03.564Z,12.20
2023-05-14T04:13:37.827Z,12.77
2023-05-14T04:14:09.437Z,12.07
2023-05-14T04:14:41.079Z,12.25
2023-05-14T04:15:12.809Z,11.93
2023-05-14T04:15:44.446Z,12.07
2023-05-14T04:16:16.092Z,11.48
2023-05-14T04:16:47.692Z,11.75
2023-05-14T04:17:19.396Z,11.55
2023-05-14T04:17:51.006Z,10.27
2023-05-14T04:18:22.547Z,11.90
2023-05-14T04:18:54.248Z,12.73
2023-05-14T04:19:25.814Z,13.77
2023-05-14T04:19:57.452Z,12.55
2023-05-14T04:20:29.157Z,13.10
2023-05-14T04:21:01.570Z,11.15
2023-05-14T04:21:33.119Z,12.07
2023-05-14T04:22:05.352Z,11.98
2023-05-14T04:22:36.901Z,12.20
2023-05-14T04:23:08.458Z,11.70
2023-05-14T04:23:39.968Z,12.27
2023-05-14T04:24:11.783Z,11.70
2023-05-14T04:24:43.519Z,10.95
2023-05-14T04:25:15.110Z,11.25
2023-05-14T04:25:46.713Z,11.07
2023-05-14T04:26:18.434Z,13.27
2023-05-14T04:26:49.946Z,11.02
2023-05-14T04:27:21.708Z,11.63
2023-05-14T04:27:53.225Z,11.68
2023-05-14T04:28:25.032Z,11.63
2023-05-14T04:28:56.611Z,12.10
2023-05-14T04:29:28.299Z,12.50
2023-05-14T04:29:59.836Z,12.63
2023-05-14T04:30:31.380Z,12.43
2023-05-14T04:31:02.882Z,12.57
2023-05-14T04:31:34.510Z,13.15
2023-05-14T04:32:07.746Z,13.48
2023-05-14T04:32:40.010Z,12.60
2023-05-14T04:33:11.738Z,13.90
2023-05-14T04:33:43.290Z,13.98
2023-05-14T04:34:14.939Z,13.90
2023-05-14T04:34:47.339Z,13.35
2023-05-14T04:35:21.589Z,13.30
2023-05-14T04:35:54.323Z,14.05
2023-05-14T04:36:25.944Z,13.52
2023-05-14T04:36:57.606Z,14.20
2023-05-14T04:37:29.140Z,14.05
2023-05-14T04:38:00.859Z,13.73
2023-05-14T04:38:32.419Z,13.65
2023-05-14T04:39:04.152Z,14.45
2023-05-14T04:39:36.056Z,12.35
2023-05-14T04:40:11.157Z,13.75
2023-05-14T04:40:42.861Z,14.82
2023-05-14T04:41:14.404Z,13.80
2023-05-14T04:41:46.180Z,14.80
2023-05-14T04:42:17.783Z,14.38
2023-05-14T04:42:49.362Z,14.50
2023-05-14T04:43:20.986Z,14.10
2023-05-14T04:43:56.296Z,13.55
2023-05-14T04:44:27.928Z,13.90
2023-05-14T04:44:59.512Z,13.82
2023-05-14T04:45:34.288Z,13.38
2023-05-14T04:46:06.140Z,12.85
2023-05-14T04:46:37.818Z,14.20
2023-05-14T04:47:09.658Z,13.23
2023-05-14T04:47:42.195Z,13.50
2023-05-14T04:48:13.810Z,13.90
2023-05-14T04:48:45.536Z,15.77
2023-05-14T04:49:17.067Z,14.18
2023-05-14T04:49:48.668Z,14.02
2023-05-14T04:50:20.389Z,15.38
2023-05-14T04:50:52.179Z,14.98
2023-05-14T04:51:24.106Z,14.75
2023-05-14T04:51:55.864Z,14.35
2023-05-14T04:52:27.451Z,13.95
2023-05-14T04:52:59.024Z,15.75
2023-05-14T04:53:30.632Z,14.80
2023-05-14T04:54:02.291Z,15.05
2023-05-14T04:54:33.978Z,13.95
2023-05-14T04:55:06.494Z,14.00
2023-05-14T04:55:38.025Z,14.98
2023-05-14T04:56:09.954Z,13.77
2023-05-14T04:56:41.907Z,14.35
2023-05-14T04:57:13.430Z,13.00
2023-05-14T04:57:44.963Z,14.70
2023-05-14T04:58:16.568Z,14.05
2023-05-14T04:58:48.143Z,13.77
2023-05-14T04:59:19.769Z,13.07
2023-05-14T04:59:51.430Z,14.80
2023-05-14T05:00:23.368Z,13.55
2023-05-14T05:00:55.161Z,13.10
2023-05-14T05:01:26.732Z,12.93
2023-05-14T05:01:58.493Z,13.77
2023-05-14T05:02:30.060Z,14.45
2023-05-14T05:03:01.713Z,16.05
2023-05-14T05:03:33.432Z,13.80
2023-05-14T05:04:05.258Z,14.43
2023-05-14T05:04:37.041Z,14.85
2023-05-14T05:05:09.179Z,14.90
2023-05-14T05:05:40.920Z,13.15
2023-05-14T05:06:12.420Z,13.98
2023-05-14T05:06:43.983Z,13.65
2023-05-14T05:07:16.058Z,15.02
2023-05-14T05:07:47.800Z,15.05
2023-05-14T05:08:19.373Z,13.50
2023-05-14T05:08:50.881Z,13.88
2023-05-14T05:09:22.499Z,15.02
2023-05-14T05:09:54.054Z,15.57
2023-05-14T05:10:25.954Z,14.23
2023-05-14T05:10:57.792Z,14.88
2023-05-14T05:11:29.356Z,13.40
2023-05-14T05:12:01.652Z,14.98
2023-05-14T05:12:33.279Z,14.88
2023-05-14T05:13:04.887Z,15.52
2023-05-14T05:13:36.451Z,15.25
2023-05-14T05:14:07.994Z,14.73
2023-05-14T05:14:39.626Z,14.32
2023-05-14T05:15:11.379Z,14.57
2023-05-14T05:15:43.605Z,14.95
2023-05-14T05:16:15.735Z,14.27
2023-05-14T05:16:47.849Z,15.27
2023-05-14T05:17:19.497Z,15.07
2023-05-14T05:17:51.167Z,15.82
2023-05-14T05:18:22.768Z,13.82
2023-05-14T05:18:54.348Z,14.98
2023-05-14T05:19:35.823Z,14.93
2023-05-14T05:20:12.333Z,15.30
2023-05-14T05:20:44.015Z,15.02
2023-05-14T05:21:15.780Z,14.88
2023-05-14T05:21:47.363Z,16.70
2023-05-14T05:22:20.171Z,14.32
2023-05-14T05:22:51.940Z,14.63
2023-05-14T05:23:23.540Z,15.07
2023-05-14T05:23:55.797Z,14.35
2023-05-14T05:24:27.561Z,14.02
2023-05-14T05:24:59.802Z,15.20
2023-05-14T05:25:31.505Z,15.50
2023-05-14T05:26:03.136Z,15.68
2023-05-14T05:26:36.937Z,15.23
2023-05-14T05:27:08.539Z,15.10
2023-05-14T05:27:40.235Z,15.07
2023-05-14T05:28:11.774Z,15.52
2023-05-14T05:28:43.302Z,15.23
2023-05-14T05:29:14.832Z,13.45
2023-05-14T05:29:46.466Z,15.43
2023-05-14T05:30:18.154Z,15.15
2023-05-14T05:30:49.739Z,14.00
2023-05-14T05:31:21.356Z,14.60
2023-05-14T05:31:53.131Z,15.32
2023-05-14T05:32:25.293Z,15.15
2023-05-14T05:32:57.791Z,14.35
2023-05-14T05:33:29.656Z,15.48
2023-05-14T05:34:01.433Z,15.60
2023-05-14T05:34:33.132Z,16.65
2023-05-14T05:35:05.111Z,14.40
2023-05-14T05:35:36.628Z,14.88
2023-05-14T05:36:08.685Z,14.80
2023-05-14T05:36:40.288Z,14.95
2023-05-14T05:37:14.048Z,14.13
2023-05-14T05:37:45.984Z,14.70
2023-05-14T05:38:18.332Z,14.45
2023-05-14T05:38:50.058Z,14.60
2023-05-14T05:39:21.630Z,14.32
2023-05-14T05:39:53.992Z,15.75
2023-05-14T05:40:25.765Z,14.35
2023-05-14T05:40:57.414Z,16.02
2023-05-14T05:41:30.218Z,14.75
2023-05-14T05:42:04.945Z,14.73
2023-05-14T05:42:36.483Z,15.18
2023-05-14T05:43:08.110Z,15.60
2023-05-14T05:43:39.695Z,15.80
2023-05-14T05:44:11.353Z,17.05
2023-05-14T05:44:43.159Z,16.00
2023-05-14T05:45:14.714Z,16.23
2023-05-14T05:45:46.386Z,14.45
2023-05-14T05:46:19.127Z,16.25
2023-05-14T05:46:51.210Z,14.70
2023-05-14T05:47:22.857Z,15.25
2023-05-14T05:47:54.478Z,14.40
2023-05-14T05:48:26.057Z,14.40
2023-05-14T05:48:57.628Z,14.35
2023-05-14T05:49:29.204Z,14.50
2023-05-14T05:50:00.758Z,14.80
2023-05-14T05:50:32.524Z,14.35
2023-05-14T05:51:04.283Z,14.05
2023-05-14T05:51:35.819Z,15.18
2023-05-14T05:52:07.366Z,13.93
2023-05-14T05:52:39.177Z,13.75
2023-05-14T05:53:10.931Z,13.15
2023-05-14T05:53:42.455Z,13.65
2023-05-14T05:54:13.988Z,14.43
2023-05-14T05:54:45.716Z,13.15
2023-05-14T05:55:17.330Z,13.43
2023-05-14T05:55:51.479Z,12.30
2023-05-14T05:56:23.124Z,13.95
2023-05-14T05:56:54.716Z,14.80
2023-05-14T05:57:27.302Z,13.80
2023-05-14T05:57:59.063Z,15.07
2023-05-14T05:58:30.761Z,13.00
2023-05-14T05:59:04.053Z,12.82
2023-05-14T05:59:36.270Z,14.50
2023-05-14T06:00:15.240Z,12.90
2023-05-14T06:00:47.269Z,13.20
2023-05-14T06:01:18.872Z,14.38
2023-05-14T06:01:50.739Z,13.00
2023-05-14T06:02:23.009Z,14.15
2023-05-14T06:02:54.993Z,11.95
2023-05-14T06:03:27.085Z,12.63
2023-05-14T06:03:58.690Z,13.23
2023-05-14T06:04:30.450Z,11.70
2023-05-14T06:05:02.090Z,12.70
2023-05-14T06:05:33.716Z,11.52
2023-05-14T06:06:05.517Z,12.73
2023-05-14T06:06:37.060Z,12.38
2023-05-14T06:07:08.658Z,12.30
2023-05-14T06:07:41.459Z,12.85
2023-05-14T06:08:13.080Z,12.75
2023-05-14T06:08:44.617Z,12.52
2023-05-14T06:09:16.228Z,11.77
2023-05-14T06:09:47.750Z,12.13
2023-05-14T06:10:19.763Z,11.40
2023-05-14T06:10:51.416Z,12.98
2023-05-14T06:11:22.958Z,12.93
2023-05-14T06:11:54.504Z,12.10
2023-05-14T06:12:26.229Z,12.55
2023-05-14T06:12:57.948Z,12.07
2023-05-14T06:13:29.502Z,11.77
2023-05-14T06:14:01.322Z,11.98
2023-05-14T06:14:32.944Z,11.32
2023-05-14T06:15:04.990Z,11.40
2023-05-14T06:15:36.546Z,11.85
2023-05-14T06:16:08.194Z,12.23
2023-05-14T06:16:39.779Z,11.05
2023-05-14T06:17:11.935Z,11.82
2023-05-14T06:17:43.643Z,10.68
2023-05-14T06:18:15.292Z,10.68
2023-05-14T06:18:47.097Z,12.18
2023-05-14T06:19:18.870Z,13.20
2023-05-14T06:19:51.627Z,11.35
2023-05-14T06:20:23.532Z,10.88
2023-05-14T06:20:56.741Z,11.80
2023-05-14T06:21:28.442Z,10.90
2023-05-14T06:21:59.970Z,10.63
2023-05-14T06:22:31.658Z,10.93
2023-05-14T06:23:03.397Z,11.18
2023-05-14T06:23:35.059Z,11.40
2023-05-14T06:24:07.012Z,12.35
2023-05-14T06:24:38.567Z,11.18
2023-05-14T06:25:10.807Z,11.13
2023-05-14T06:25:42.435Z,10.13
2023-05-14T06:26:13.981Z,10.15
2023-05-14T06:26:45.751Z,10.57
2023-05-14T06:27:17.271Z,10.82
2023-05-14T06:27:48.812Z,11.43
2023-05-14T06:28:20.527Z,11.52
2023-05-14T06:28:52.336Z,10.65
2023-05-14T06:29:23.920Z,10.45
2023-05-14T06:29:55.631Z,10.30
2023-05-14T06:30:27.205Z,10.60
2023-05-14T06:30:58.944Z,10.98
2023-05-14T06:31:30.611Z,10.82
2023-05-14T06:32:03.709Z,10.80
2023-05-14T06:32:35.369Z,10.80
2023-05-14T06:33:06.960Z,10.10
2023-05-14T06:33:39.264Z,10.68
2023-05-14T06:34:11.354Z,10.77
2023-05-14T06:34:43.166Z,10.93
2023-05-14T06:35:14.758Z,10.68
2023-05-14T06:35:46.549Z,11.40
2023-05-14T06:36:18.104Z,10.15
2023-05-14T06:36:49.669Z,11.35
2023-05-14T06:37:21.193Z,10.13
2023-05-14T06:37:52.708Z,11.15
2023-05-14T06:38:24.305Z,10.02
2023-05-14T06:38:55.938Z,9.90
2023-05-14T06:39:27.434Z,11.98
2023-05-14T06:39:59.034Z,9.38
2023-05-14T06:40:30.585Z,10.10
2023-05-14T06:41:02.481Z,11.10
2023-05-14T06:41:34.044Z,10.20
2023-05-14T06:42:06.207Z,10.80
2023-05-14T06:42:37.879Z,10.02
2023-05-14T06:43:09.691Z,10.80
2023-05-14T06:43:41.396Z,11.23
2023-05-14T06:44:13.015Z,10.23
2023-05-14T06:44:45.100Z,9.68
2023-05-14T06:45:16.676Z,9.93
2023-05-14T06:45:51.904Z,10.60
2023-05-14T06:46:23.508Z,10.20
2023-05-14T06:46:55.116Z,9.90
2023-05-14T06:47:26.711Z,9.68
2023-05-14T06:47:58.416Z,9.68
2023-05-14T06:48:31.012Z,9.60
2023-05-14T06:49:02.564Z,9.82
2023-05-14T06:49:35.299Z,9.45
2023-05-14T06:50:08.416Z,9.25
2023-05-14T06:50:41.676Z,9.45
2023-05-14T06:51:13.476Z,8.73
2023-05-14T06:51:45.737Z,10.13
2023-05-14T06:52:17.381Z,9.55
2023-05-14T06:52:48.926Z,8.73
2023-05-14T06:53:20.508Z,9.90
2023-05-14T06:53:52.685Z,9.73
2023-05-14T06:54:24.427Z,8.95
2023-05-14T06:54:55.923Z,9.02
2023-05-14T06:55:27.478Z,8.02
2023-05-14T06:55:59.202Z,9.80